createdAt,value
2017-12-03T00:01:26.729Z,26.0
2017-12-03T00:11:27.047Z,27.3
2017-12-03T00:21:26.293Z,26.0
2017-12-03T00:31:27.267Z,26.0
2017-12-03T00:41:26.410Z,27.8
2017-12-03T00:51:25.677Z,27.5
2017-12-03T01:01:27.436Z,28.1
2017-12-03T01:11:26.407Z,27.5
2017-12-03T01:21:25.641Z,28.0
2017-12-03T01:31:25.943Z,25.6
2017-12-03T01:41:26.765Z,27.8
2017-12-03T01:51:26.399Z,26.9
2017-12-03T02:01:26.538Z,27.7
2017-12-03T02:11:29.053Z,28.5
2017-12-03T02:21:27.332Z,26.9
2017-12-03T02:31:25.959Z,28.6
2017-12-03T02:41:27.018Z,25.3
2017-12-03T02:51:26.149Z,24.1
2017-12-03T03:01:27.786Z,23.0
2017-12-03T03:11:26.350Z,23.9
2017-12-03T03:21:25.765Z,24.4
2017-12-03T03:31:25.835Z,23.3
2017-12-03T03:41:27.831Z,22.9
2017-12-03T03:51:27.337Z,20.8
2017-12-03T04:01:26.084Z,23.0
2017-12-03T04:11:26.119Z,22.8
2017-12-03T04:21:25.865Z,22.1
2017-12-03T04:31:26.554Z,22.1
2017-12-03T04:41:25.661Z,22.0
2017-12-03T04:51:26.166Z,22.3
2017-12-03T05:01:26.611Z,21.3
2017-12-03T05:11:26.204Z,21.3
2017-12-03T05:21:27.672Z,20.6
2017-12-03T05:31:26.753Z,22.2
2017-12-03T05:41:27.507Z,21.0
2017-12-03T05:51:26.534Z,23.4
2017-12-03T06:01:26.151Z,22.8
2017-12-03T06:11:29.543Z,21.0
2017-12-03T06:21:26.241Z,18.0
2017-12-03T06:31:27.994Z,22.1
2017-12-03T06:41:27.531Z,20.3
2017-12-03T06:51:26.610Z,21.5
2017-12-03T07:01:26.435Z,22.0
2017-12-03T07:11:26.056Z,24.2
2017-12-03T07:21:26.984Z,21.9
2017-12-03T07:31:26.786Z,23.0
2017-12-03T07:41:27.026Z,22.6
2017-12-03T07:51:27.006Z,23.0
2017-12-03T08:01:26.015Z,21.1
2017-12-03T08:11:28.094Z,20.5
2017-12-03T08:21:26.910Z,21.4
2017-12-03T08:31:27.453Z,21.0
2017-12-03T08:41:26.171Z,22.8
2017-12-03T08:51:30.659Z,21.3
2017-12-03T09:01:26.782Z,21.5
2017-12-03T09:11:26.505Z,20.9
2017-12-03T09:21:25.741Z,20.3
2017-12-03T09:31:26.292Z,22.8
2017-12-03T09:41:26.916Z,22.4
2017-12-03T09:51:25.954Z,22.7
2017-12-03T10:01:26.244Z,23.8
2017-12-03T10:11:27.816Z,22.1
2017-12-03T10:21:26.975Z,21.6
2017-12-03T10:31:26.304Z,21.3
2017-12-03T10:41:26.734Z,22.9
2017-12-03T10:51:26.040Z,22.1
2017-12-03T11:01:26.794Z,22.9
2017-12-03T11:11:26.343Z,22.4
2017-12-03T11:21:26.135Z,25.1
2017-12-03T11:31:27.461Z,22.0
2017-12-03T11:41:25.902Z,20.4
2017-12-03T11:51:26.853Z,22.5
2017-12-03T12:01:27.195Z,22.0
2017-12-03T12:11:27.603Z,21.8
2017-12-03T12:21:27.687Z,21.2
2017-12-03T12:31:25.820Z,22.7
2017-12-03T12:41:25.949Z,21.6
2017-12-03T12:51:26.868Z,22.6
2017-12-03T13:01:26.850Z,21.0
2017-12-03T13:11:25.902Z,23.2
2017-12-03T13:21:27.445Z,21.9
2017-12-03T13:31:26.827Z,21.1
2017-12-03T13:41:26.110Z,20.6
2017-12-03T13:51:27.971Z,20.8
2017-12-03T14:01:26.490Z,19.9
2017-12-03T14:11:25.608Z,19.6
2017-12-03T14:21:27.215Z,19.1
2017-12-03T14:31:26.513Z,20.9
2017-12-03T14:41:25.806Z,19.4
2017-12-03T14:51:27.241Z,20.0
2017-12-03T15:01:27.694Z,18.7
2017-12-03T15:11:28.148Z,20.6
2017-12-03T15:21:25.744Z,20.8
2017-12-03T15:31:26.771Z,24.0
2017-12-03T15:41:27.500Z,21.1
2017-12-03T15:51:26.751Z,24.0
2017-12-03T16:01:26.077Z,23.4
2017-12-03T16:11:26.115Z,21.4
2017-12-03T16:21:25.906Z,22.8
2017-12-03T16:31:27.099Z,23.5
2017-12-03T16:41:27.791Z,25.1
2017-12-03T16:51:29.161Z,23.7
2017-12-03T17:01:26.539Z,21.6
2017-12-03T17:11:26.743Z,22.5
2017-12-03T17:21:26.246Z,22.6
2017-12-03T17:31:26.271Z,24.0
2017-12-03T17:41:26.496Z,23.0
2017-12-03T17:51:26.620Z,22.9
2017-12-03T18:01:26.205Z,21.5
2017-12-03T18:11:26.704Z,20.0
2017-12-03T18:21:27.332Z,19.3
2017-12-03T18:31:26.140Z,21.3
2017-12-03T18:41:26.805Z,26.4
2017-12-03T18:51:25.910Z,23.9
2017-12-03T19:01:27.922Z,24.8
2017-12-03T19:11:26.313Z,22.3
2017-12-03T19:21:25.621Z,21.8
2017-12-03T19:31:25.821Z,24.3
2017-12-03T19:41:26.195Z,26.7
2017-12-03T19:51:28.810Z,28.5
2017-12-03T20:01:26.405Z,29.8
2017-12-03T20:11:26.963Z,28.2
2017-12-03T20:21:26.787Z,30.2
2017-12-03T20:31:27.015Z,34.5
2017-12-03T20:41:26.211Z,32.3
2017-12-03T20:51:26.314Z,34.0
2017-12-03T21:01:25.704Z,33.2
2017-12-03T21:11:26.379Z,33.7
2017-12-03T21:21:25.969Z,39.9
2017-12-03T21:31:26.192Z,38.6
2017-12-03T21:41:26.502Z,40.1
2017-12-03T21:51:26.272Z,43.0
2017-12-03T22:01:25.614Z,44.8
2017-12-03T22:11:26.560Z,43.7
2017-12-03T22:21:26.228Z,43.3
2017-12-03T22:31:26.661Z,53.0
2017-12-03T22:41:26.002Z,55.1
2017-12-03T22:51:31.833Z,55.3
2017-12-03T23:01:26.198Z,56.5
2017-12-03T23:11:31.714Z,58.1
2017-12-03T23:21:26.869Z,63.8
2017-12-03T23:31:26.590Z,58.7
2017-12-03T23:41:26.267Z,64.6
2017-12-03T23:51:27.933Z,67.7
